Terminal Aerodrome Forecast
Issued by NWS

Home | Current Version | Previous Version | Text Only | Print | Product List | Glossary On
Versions: 1 2 3 4 5 6 7 8 9 10 11 12
000
FTUS45 KGJT 010540
TAFMTJ
TAF
KMTJ 010540Z 0106/0206 16010KT P6SM SCT090 BKN150
     FM011700 20022G32KT P6SM SCT100 BKN140
     FM020300 17012G18KT P6SM SCT100 BKN250=

USA.gov is the U.S. government's official web portal to all federal, state and local government web resources and services.